createdAt,value
2023-01-13T00:02:57.661Z,12.05
2023-01-13T00:08:00.130Z,12.18
2023-01-13T00:13:04.615Z,12.02
2023-01-13T00:18:07.094Z,11.95
2023-01-13T00:23:09.540Z,12.02
2023-01-13T00:28:11.973Z,12.00
2023-01-13T00:33:14.470Z,11.80
2023-01-13T00:38:16.781Z,12.01
2023-01-13T00:43:25.137Z,12.02
2023-01-13T00:48:30.926Z,11.97
2023-01-13T00:53:43.566Z,11.97
2023-01-13T00:58:47.597Z,12.15
2023-01-13T01:03:55.176Z,11.94
2023-01-13T01:08:57.871Z,12.21
2023-01-13T01:14:03.038Z,12.17
2023-01-13T01:19:05.556Z,12.10
2023-01-13T01:24:08.297Z,11.93
2023-01-13T01:29:15.513Z,12.07
2023-01-13T01:34:17.997Z,12.08
2023-01-13T01:39:20.423Z,12.22
2023-01-13T01:45:10.382Z,12.14
2023-01-13T01:50:13.029Z,12.01
2023-01-13T01:55:31.238Z,12.07
2023-01-13T02:00:34.095Z,11.64
2023-01-13T02:05:36.933Z,11.46
2023-01-13T02:10:42.128Z,11.71
2023-01-13T02:15:51.459Z,11.47
2023-01-13T02:21:03.112Z,11.73
2023-01-13T02:26:22.168Z,11.77
2023-01-13T02:31:43.161Z,11.58
2023-01-13T02:36:58.665Z,11.48
2023-01-13T02:42:23.980Z,11.34
2023-01-13T02:47:28.142Z,11.39
2023-01-13T02:52:53.109Z,11.27
2023-01-13T02:57:56.959Z,11.32
2023-01-13T03:02:59.440Z,11.17
2023-01-13T03:08:07.117Z,11.20
2023-01-13T03:13:41.839Z,11.30
2023-01-13T03:18:53.634Z,11.15
2023-01-13T03:24:10.156Z,11.01
2023-01-13T03:29:20.175Z,11.07
2023-01-13T03:34:30.313Z,10.85
2023-01-13T03:39:40.370Z,11.09
2023-01-13T03:45:02.203Z,11.07
2023-01-13T03:50:20.247Z,11.26
2023-01-13T03:55:36.207Z,11.31
2023-01-13T04:00:58.653Z,11.19
2023-01-13T04:06:21.988Z,11.48
2023-01-13T04:11:39.070Z,11.34
2023-01-13T04:16:42.166Z,10.89
2023-01-13T04:21:44.615Z,10.81
2023-01-13T04:26:46.775Z,11.23
2023-01-13T04:31:49.293Z,11.16
2023-01-13T04:36:51.645Z,10.85
2023-01-13T04:42:00.085Z,10.93
2023-01-13T04:47:03.284Z,11.05
2023-01-13T04:52:07.095Z,11.16
2023-01-13T04:57:09.383Z,11.07
2023-01-13T05:02:15.268Z,11.22
2023-01-13T05:07:18.472Z,11.26
2023-01-13T05:12:39.096Z,11.29
2023-01-13T05:17:41.455Z,10.65
2023-01-13T05:23:02.364Z,10.90
2023-01-13T05:28:04.818Z,10.76
2023-01-13T05:33:06.928Z,10.96
2023-01-13T05:38:10.007Z,10.86
2023-01-13T05:43:22.160Z,10.97
2023-01-13T05:48:37.480Z,10.81
2023-01-13T05:53:42.992Z,10.94
2023-01-13T05:58:45.140Z,10.73
2023-01-13T06:03:47.449Z,10.93
2023-01-13T06:08:49.692Z,10.73
2023-01-13T06:13:52.224Z,11.07
2023-01-13T06:18:54.789Z,11.20
2023-01-13T06:23:57.249Z,11.08
2023-01-13T06:28:59.568Z,10.88
2023-01-13T06:34:11.750Z,10.70
2023-01-13T06:39:18.917Z,11.07
2023-01-13T06:44:22.927Z,11.28
2023-01-13T06:49:25.246Z,11.52
2023-01-13T06:54:27.885Z,10.94
2023-01-13T06:59:30.337Z,11.16
2023-01-13T07:04:32.650Z,11.02
2023-01-13T07:09:35.036Z,11.28
2023-01-13T07:14:55.915Z,11.36
2023-01-13T07:19:58.216Z,11.18
2023-01-13T07:25:00.509Z,11.42
2023-01-13T07:30:04.194Z,11.38
2023-01-13T07:35:07.229Z,11.46
2023-01-13T07:40:12.782Z,11.23
2023-01-13T07:45:15.164Z,11.57
2023-01-13T07:50:17.435Z,11.70
2023-01-13T07:55:19.578Z,11.36
2023-01-13T08:00:22.504Z,11.20
2023-01-13T08:05:24.665Z,11.31
2023-01-13T08:10:26.795Z,10.93
2023-01-13T08:15:29.990Z,11.17
2023-01-13T08:20:32.118Z,11.18
2023-01-13T08:25:34.633Z,11.64
2023-01-13T08:30:36.941Z,11.24
2023-01-13T08:35:41.657Z,11.43
2023-01-13T08:40:43.977Z,11.29
2023-01-13T08:45:46.163Z,11.23
2023-01-13T08:50:48.512Z,11.13
2023-01-13T08:55:50.882Z,11.29
2023-01-13T09:00:53.049Z,11.39
2023-01-13T09:05:55.252Z,11.20
2023-01-13T09:10:58.099Z,11.04
2023-01-13T09:16:00.325Z,11.10
2023-01-13T09:21:02.547Z,10.97
2023-01-13T09:26:05.060Z,11.04
2023-01-13T09:31:07.474Z,11.28
2023-01-13T09:36:09.899Z,11.49
2023-01-13T09:41:43.819Z,10.85
2023-01-13T09:46:59.217Z,10.90
2023-01-13T09:52:19.614Z,11.12
2023-01-13T09:57:22.140Z,11.28
2023-01-13T10:02:27.392Z,10.94
2023-01-13T10:07:34.475Z,11.25
2023-01-13T10:12:55.470Z,11.02
2023-01-13T10:18:13.501Z,11.42
2023-01-13T10:23:34.482Z,11.81
2023-01-13T10:28:36.646Z,11.46
2023-01-13T10:33:38.792Z,11.67
2023-01-13T10:38:47.203Z,11.88
2023-01-13T10:43:52.441Z,12.31
2023-01-13T10:49:00.820Z,12.49
2023-01-13T10:54:13.220Z,12.16
2023-01-13T10:59:23.954Z,12.52
2023-01-13T11:04:37.982Z,12.91
2023-01-13T11:09:40.289Z,12.83
2023-01-13T11:14:45.912Z,12.88
2023-01-13T11:19:58.202Z,12.34
2023-01-13T11:25:07.048Z,12.52
2023-01-13T11:30:39.025Z,12.05
2023-01-13T11:35:58.887Z,11.87
2023-01-13T11:41:15.141Z,11.89
2023-01-13T11:46:17.425Z,11.71
2023-01-13T11:51:54.883Z,11.96
2023-01-13T11:57:36.259Z,12.41
2023-01-13T12:02:57.866Z,12.50
2023-01-13T12:08:19.232Z,12.68
2023-01-13T12:13:54.829Z,12.26
2023-01-13T12:19:30.053Z,12.06
2023-01-13T12:25:06.995Z,12.75
2023-01-13T12:30:24.218Z,12.47
2023-01-13T12:35:40.133Z,12.66
2023-01-13T12:41:20.521Z,12.72
2023-01-13T12:46:22.705Z,13.09
2023-01-13T12:51:57.992Z,13.14
2023-01-13T12:57:00.860Z,13.11
2023-01-13T13:02:12.743Z,12.52
2023-01-13T13:07:33.819Z,12.62
2023-01-13T13:13:00.637Z,12.56
2023-01-13T13:18:32.882Z,12.33
2023-01-13T13:23:48.037Z,12.05
2023-01-13T13:29:20.741Z,10.70
2023-01-13T13:34:33.520Z,10.63
2023-01-13T13:39:54.663Z,10.61
2023-01-13T13:45:16.815Z,10.74
2023-01-13T13:50:21.328Z,10.45
2023-01-13T13:55:28.416Z,10.21
2023-01-13T14:00:35.688Z,9.99
2023-01-13T14:05:38.418Z,9.87
2023-01-13T14:10:45.075Z,10.00
2023-01-13T14:15:56.592Z,9.77
2023-01-13T14:21:17.466Z,9.80
2023-01-13T14:26:32.317Z,10.16
2023-01-13T14:31:35.129Z,10.08
2023-01-13T14:36:39.518Z,9.80
2023-01-13T14:41:50.694Z,10.32
2023-01-13T14:46:56.709Z,10.15
2023-01-13T14:52:20.502Z,10.11
2023-01-13T14:57:29.678Z,10.15
2023-01-13T15:02:34.019Z,9.81
2023-01-13T15:07:37.029Z,9.74
2023-01-13T15:12:41.074Z,9.60
2023-01-13T15:17:43.418Z,9.30
2023-01-13T15:22:46.765Z,9.23
2023-01-13T15:27:52.912Z,9.05
2023-01-13T15:32:59.068Z,9.10
2023-01-13T15:38:01.303Z,8.89
2023-01-13T15:43:22.044Z,9.01
2023-01-13T15:48:25.837Z,9.02
2023-01-13T15:53:28.494Z,9.21
2023-01-13T15:58:31.968Z,9.06
2023-01-13T16:03:34.465Z,9.21
2023-01-13T16:08:36.624Z,9.06
2023-01-13T16:13:39.282Z,9.17
2023-01-13T16:18:41.567Z,9.26
2023-01-13T16:23:43.845Z,9.08
2023-01-13T16:28:46.281Z,8.96
2023-01-13T16:33:48.690Z,9.01
2023-01-13T16:38:53.558Z,8.96
2023-01-13T16:43:55.877Z,9.05
2023-01-13T16:49:04.539Z,9.07
2023-01-13T16:54:07.417Z,9.14
2023-01-13T16:59:17.139Z,9.38
2023-01-13T17:04:23.578Z,9.49
2023-01-13T17:09:28.841Z,9.39
2023-01-13T17:14:31.122Z,9.42
2023-01-13T17:19:33.392Z,9.20
2023-01-13T17:24:37.749Z,8.98
2023-01-13T17:29:40.388Z,9.20
2023-01-13T17:34:44.040Z,9.10
2023-01-13T17:39:48.661Z,8.98
2023-01-13T17:44:50.925Z,9.02
2023-01-13T17:49:53.112Z,9.04
2023-01-13T17:54:55.491Z,9.01
2023-01-13T17:59:59.616Z,8.92
2023-01-13T18:05:01.979Z,8.71
2023-01-13T18:10:04.571Z,8.69
2023-01-13T18:15:07.804Z,8.64
2023-01-13T18:20:37.329Z,8.63
2023-01-13T18:25:59.366Z,8.50
2023-01-13T18:31:01.592Z,8.42
2023-01-13T18:36:08.538Z,8.34
2023-01-13T18:41:30.865Z,8.32
2023-01-13T18:46:33.193Z,8.30
2023-01-13T18:51:35.524Z,8.07
2023-01-13T18:56:38.009Z,8.20
2023-01-13T19:01:40.456Z,7.94
2023-01-13T19:06:49.178Z,8.07
2023-01-13T19:11:53.039Z,7.91
2023-01-13T19:16:55.162Z,7.88
2023-01-13T19:21:57.541Z,8.07
2023-01-13T19:26:59.903Z,8.21
2023-01-13T19:32:02.335Z,8.34
2023-01-13T19:37:06.741Z,8.27
2023-01-13T19:42:29.738Z,8.13
2023-01-13T19:47:32.436Z,8.34
2023-01-13T19:52:35.269Z,8.26
2023-01-13T19:57:39.370Z,8.24
2023-01-13T20:02:48.032Z,8.05
2023-01-13T20:07:51.588Z,8.13
2023-01-13T20:12:53.921Z,8.25
2023-01-13T20:17:58.004Z,8.50
2023-01-13T20:23:00.377Z,8.53
2023-01-13T20:28:07.033Z,8.87
2023-01-13T20:33:09.325Z,8.83
2023-01-13T20:38:12.234Z,8.78
2023-01-13T20:43:15.216Z,8.70
2023-01-13T20:48:18.299Z,8.56
2023-01-13T20:53:20.505Z,8.48
2023-01-13T20:58:22.610Z,8.95
2023-01-13T21:03:24.721Z,8.75
2023-01-13T21:08:26.853Z,9.00
2023-01-13T21:13:47.581Z,8.90
2023-01-13T21:19:07.798Z,8.83
2023-01-13T21:24:09.911Z,8.91
2023-01-13T21:29:12.234Z,8.87
2023-01-13T21:34:14.575Z,8.96
2023-01-13T21:39:16.981Z,8.95
2023-01-13T21:44:39.503Z,8.79
2023-01-13T21:49:44.536Z,8.83
2023-01-13T21:55:05.276Z,8.95
2023-01-13T22:00:08.605Z,8.72
2023-01-13T22:05:13.161Z,8.87
2023-01-13T22:10:19.569Z,8.86
2023-01-13T22:15:25.857Z,8.62
2023-01-13T22:20:28.347Z,8.53
2023-01-13T22:25:30.832Z,8.43
2023-01-13T22:30:33.402Z,8.43
2023-01-13T22:35:35.773Z,8.66
2023-01-13T22:40:38.053Z,8.72
2023-01-13T22:45:40.342Z,8.68
2023-01-13T22:50:42.470Z,8.64
2023-01-13T22:55:52.918Z,8.95
2023-01-13T23:00:56.210Z,8.62
2023-01-13T23:05:59.634Z,8.96
2023-01-13T23:11:05.587Z,8.91
2023-01-13T23:16:15.534Z,8.77
2023-01-13T23:21:26.417Z,8.91
2023-01-13T23:26:30.845Z,8.75
2023-01-13T23:31:33.805Z,8.84
2023-01-13T23:36:41.066Z,8.82
2023-01-13T23:41:43.395Z,8.54
2023-01-13T23:46:45.614Z,8.55
2023-01-13T23:51:51.699Z,8.61
2023-01-13T23:56:53.999Z,8.83
